Wright-Patterson Air Force Base (FFO)

 

Airport Diagram
Current Weather/Forecast (VFR Conditions)
METAR KFFO 210856Z AUTO 19010KT 10SM FEW065 SCT110 18/16 A3007 RMK AO2 SLP185 T01760159 55002
TAF TAF KFFO 210300Z 2103/2209 16006KT 8000 BR OVC005 QNH3009INS BECMG 2106/2107 20006KT 8000 BR SCT005 OVC015 WS020/21035KT QNH3007INS BECMG 2114/2115 21009KT 3200 -SHRA OVC005 QNH3013INS BECMG 2115/2116 23015G20KT 8000 -SHRA OVC015 510043 QNH3015INS BECMG 2120/2121 VRB06KT 8000 BR BKN012 QNH3016INS BECMG 2202/2203 VRB06KT 8000 BR BKN005 QNH3017INS TX20/2117Z TN13/2103Z

Airport Information

All Charts
General
Chart Name View
AIRPORT DIAGRAM
AIRPORT DIAGRAM
TAKEOFF MINIMUMS
TAKEOFF MINIMUMS

Arrivals
Chart Name Download
DANEI THREE
KEKEE FOUR
DANEI THREE
KEKEE FOUR

Approaches
Chart Name Download
ILS OR LOC RWY 05L
ILS OR LOC RWY 23R
RNAV (GPS) RWY 05L
RNAV (GPS) RWY 05R
RNAV (GPS) RWY 23L
RNAV (GPS) RWY 23R
TACAN RWY 05L
TACAN RWY 05R
TACAN RWY 23L
TACAN RWY 23R
ILS OR LOC RWY 05L
ILS OR LOC RWY 23R
RNAV (GPS) RWY 05L
RNAV (GPS) RWY 05R
RNAV (GPS) RWY 23L
RNAV (GPS) RWY 23R
TACAN RWY 05L
TACAN RWY 05R
TACAN RWY 23L
TACAN RWY 23R


Airport Statistics
Departures Arrivals Local
All Collected Stats since June 2016: 51 44 4
2020 Stats: 24 23 2
October Stats: 2 2 0

Inbound Traffic (Arrivals) - 0

No inbound traffic.


Outbound Traffic (Departures) - 0

No outbound traffic.


Local Traffic (Pattern) - 0

No local traffic.